Time;durP1;ratioP1;P1;durP2;ratioP2;P2;SDS_P1;SDS_P2;PMS_P1;PMS_P2;Temp;Humidity;BMP_temperature;BMP_pressure;BME280_temperature;BME280_humidity;BME280_pressure;Samples;Min_cycle;Max_cycle;Signal;HPM_P1;HPM_P2
2022/03/07 00:01:50;;;;;;;;;65.75;51.75;;;;;4.90;49.98;101707.97;5061988;28;45516;-65
2022/03/07 00:04:17;;;;;;;;;67.25;45.00;;;;;4.80;50.05;101707.22;5061091;28;45223;-66
2022/03/07 00:06:43;;;;;;;;;67.50;52.50;;;;;4.81;49.60;101708.09;5063022;28;45614;-63
2022/03/07 00:09:09;;;;;;;;;62.50;52.00;;;;;4.74;49.82;101702.06;5065347;28;45358;-64
2022/03/07 00:11:35;;;;;;;;;65.50;54.00;;;;;4.74;50.86;101710.81;5060923;28;45390;-66
2022/03/07 00:14:02;;;;;;;;;65.00;51.50;;;;;4.68;50.46;101695.09;5065936;28;45196;-62
2022/03/07 00:16:27;;;;;;;;;67.00;48.00;;;;;4.69;50.09;101699.50;5065126;28;45342;-63
2022/03/07 00:18:56;;;;;;;;;61.50;48.75;;;;;4.66;50.23;101696.88;5065650;28;45277;-66
2022/03/07 00:21:21;;;;;;;;;67.00;51.00;;;;;4.66;50.51;101717.97;5060093;28;45493;-63
2022/03/07 00:23:47;;;;;;;;;60.25;45.75;;;;;4.63;50.12;101699.56;5058829;28;45473;-64
2022/03/07 00:26:12;;;;;;;;;69.25;50.25;;;;;4.60;51.13;101701.38;5061713;28;45450;-63
2022/03/07 00:28:38;;;;;;;;;64.00;49.75;;;;;4.60;50.10;101710.16;5062533;28;46140;-63
2022/03/07 00:31:07;;;;;;;;;64.00;51.00;;;;;4.48;50.71;101694.50;5060092;28;45364;-65
2022/03/07 00:33:34;;;;;;;;;62.00;47.00;;;;;4.56;50.99;101710.22;5030450;28;45376;-65
2022/03/07 00:35:59;;;;;;;;;60.25;48.75;;;;;4.43;51.03;101706.88;5026393;28;45441;-63
2022/03/07 00:38:25;;;;;;;;;59.00;47.75;;;;;4.39;51.28;101706.03;5059442;28;45395;-66
2022/03/07 00:40:51;;;;;;;;;65.00;52.25;;;;;4.39;51.28;101706.03;5066389;28;45390;-65
2022/03/07 00:43:18;;;;;;;;;73.00;55.75;;;;;4.43;51.20;101720.06;5069831;28;45373;-63
2022/03/07 00:45:44;;;;;;;;;64.00;48.25;;;;;4.35;51.26;101704.34;5066487;28;45365;-65
2022/03/07 00:48:10;;;;;;;;;60.75;49.00;;;;;4.29;51.57;101698.25;5066599;28;45646;-64
2022/03/07 00:50:35;;;;;;;;;61.75;46.25;;;;;4.38;51.34;101712.19;5068889;28;45410;-67
2022/03/07 00:53:01;;;;;;;;;62.25;45.50;;;;;4.31;51.55;101701.75;5071029;28;45279;-66
2022/03/07 00:55:27;;;;;;;;;53.75;47.00;;;;;4.28;51.12;101700.00;5069061;28;45410;-65
2022/03/07 00:57:52;;;;;;;;;57.75;50.00;;;;;4.28;52.17;101713.19;5052168;28;45229;-65
2022/03/07 01:00:18;;;;;;;;;57.75;40.75;;;;;4.23;51.83;101707.13;5066387;28;45334;-63
2022/03/07 01:02:43;;;;;;;;;62.25;47.00;;;;;4.25;51.63;101709.72;5067147;28;45395;-63
2022/03/07 01:05:08;;;;;;;;;57.25;46.75;;;;;4.20;51.76;101712.44;5065019;28;45318;-65
2022/03/07 01:07:34;;;;;;;;;61.25;47.00;;;;;4.22;51.72;101712.41;5064075;28;45333;-64
2022/03/07 01:09:59;;;;;;;;;61.00;49.50;;;;;4.09;51.66;101690.63;5047654;28;45319;-65
2022/03/07 01:12:25;;;;;;;;;50.50;41.75;;;;;4.10;52.10;101697.63;5079783;28;45106;-65
2022/03/07 01:14:50;;;;;;;;;64.00;50.00;;;;;4.07;52.19;101698.53;5081855;28;44791;-66
2022/03/07 01:17:16;;;;;;;;;57.50;48.00;;;;;4.11;52.27;101708.13;5074567;28;45120;-64
2022/03/07 01:19:41;;;;;;;;;59.00;47.00;;;;;4.02;52.27;101700.31;5073182;28;47110;-66
2022/03/07 01:22:06;;;;;;;;;48.50;44.00;;;;;3.89;51.70;101688.19;5079730;28;44933;-66
2022/03/07 01:24:36;;;;;;;;;57.50;46.50;;;;;4.07;52.01;101708.19;5079705;28;44864;-66
2022/03/07 01:27:02;;;;;;;;;55.75;48.25;;;;;3.97;52.15;101689.00;5067455;28;45323;-65
2022/03/07 01:29:27;;;;;;;;;66.50;45.75;;;;;3.97;52.26;101704.78;5064203;28;45326;-65
2022/03/07 01:31:52;;;;;;;;;51.25;45.25;;;;;3.95;51.92;101698.66;5064731;28;45227;-65
2022/03/07 01:34:18;;;;;;;;;57.75;46.00;;;;;3.89;52.33;101700.47;5064556;28;45643;-64
2022/03/07 01:36:43;;;;;;;;;55.00;48.25;;;;;3.85;52.40;101689.13;5063307;28;47287;-66
2022/03/07 01:39:09;;;;;;;;;53.50;44.00;;;;;3.83;52.41;101688.28;5065832;28;45255;-63
2022/03/07 01:41:34;;;;;;;;;57.50;48.25;;;;;3.92;52.58;101703.97;5059220;28;45213;-63
2022/03/07 01:43:59;;;;;;;;;57.00;45.75;;;;;3.92;52.63;101696.09;5070329;28;45440;-62
2022/03/07 01:46:28;;;;;;;;;62.25;51.25;;;;;3.81;52.19;101676.91;5052681;28;45155;-63
2022/03/07 01:48:53;;;;;;;;;63.50;49.75;;;;;3.87;52.36;101694.38;5068227;28;45340;-63
2022/03/07 01:51:21;;;;;;;;;56.75;44.00;;;;;3.86;52.45;101693.50;5048663;28;45445;-60
2022/03/07 01:53:47;;;;;;;;;61.25;47.25;;;;;3.77;52.61;101683.06;5069724;28;44790;-64
2022/03/07 01:56:12;;;;;;;;;53.50;46.00;;;;;3.81;52.67;101692.69;5065837;28;45361;-66
2022/03/07 01:58:38;;;;;;;;;50.50;45.50;;;;;3.75;52.64;101682.22;5063851;28;45334;-65
2022/03/07 02:01:03;;;;;;;;;61.00;50.25;;;;;3.71;52.68;101675.25;5068843;28;45393;-64
2022/03/07 02:03:29;;;;;;;;;54.50;46.25;;;;;3.75;52.78;101683.09;5074821;28;45327;-62
2022/03/07 02:05:55;;;;;;;;;55.75;36.50;;;;;3.69;52.48;101675.28;5055326;28;45351;-64
2022/03/07 02:08:20;;;;;;;;;60.25;46.75;;;;;3.70;52.34;101681.41;5051882;28;45629;-64
2022/03/07 02:10:46;;;;;;;;;44.00;44.00;;;;;3.69;52.77;101675.28;5071039;28;45428;-64
2022/03/07 02:13:16;;;;;;;;;54.25;41.50;;;;;3.66;52.55;101662.16;5070456;28;45381;-63
2022/03/07 02:15:42;;;;;;;;;46.00;42.50;;;;;3.62;53.00;101673.56;5070694;28;45966;-63
2022/03/07 02:18:07;;;;;;;;;52.75;36.50;;;;;3.58;53.29;101671.00;5048939;28;45293;-63
2022/03/07 02:20:33;;;;;;;;;65.25;49.00;;;;;3.54;53.20;101668.41;5066881;28;45417;-63
2022/03/07 02:22:59;;;;;;;;;48.25;41.50;;;;;3.49;52.97;101666.69;5066528;28;45657;-63
2022/03/07 02:25:24;;;;;;;;;59.75;48.50;;;;;3.51;53.30;101665.78;5066709;28;46186;-64
2022/03/07 02:27:50;;;;;;;;;53.25;45.25;;;;;3.52;53.43;101662.28;5064763;28;45229;-64
2022/03/07 02:30:15;;;;;;;;;49.75;40.50;;;;;3.53;53.24;101658.78;5060270;28;45489;-63
2022/03/07 02:32:44;;;;;;;;;53.00;42.75;;;;;3.49;53.12;101656.19;5061767;28;45305;-66
2022/03/07 02:35:14;;;;;;;;;61.25;44.75;;;;;3.47;52.91;101664.09;5060576;28;45581;-65
2022/03/07 02:37:40;;;;;;;;;63.00;51.25;;;;;3.40;53.49;101651.03;5061386;28;45286;-64
2022/03/07 02:40:06;;;;;;;;;46.25;38.75;;;;;3.40;53.54;101644.00;5069983;28;45605;-64
2022/03/07 02:42:31;;;;;;;;;48.25;44.25;;;;;3.42;53.20;101655.38;5056066;28;45430;-63
2022/03/07 02:44:57;;;;;;;;;57.50;45.25;;;;;3.35;53.60;101632.66;5061428;28;46554;-67
2022/03/07 02:47:23;;;;;;;;;50.75;39.50;;;;;3.22;53.60;101618.75;5063585;28;45401;-63
2022/03/07 02:49:50;;;;;;;;;47.25;38.75;;;;;3.34;53.60;101643.19;5060585;28;45486;-65
2022/03/07 02:52:15;;;;;;;;;47.25;33.50;;;;;3.25;53.55;101631.88;5060962;28;45431;-64
2022/03/07 02:54:41;;;;;;;;;53.25;42.50;;;;;3.30;52.89;101644.97;5057842;28;45560;-65
2022/03/07 02:57:07;;;;;;;;;57.75;49.50;;;;;3.22;53.70;101636.28;5043618;28;45498;-66
2022/03/07 02:59:33;;;;;;;;;58.25;41.50;;;;;3.23;53.48;101640.66;5044730;28;45266;-66
2022/03/07 03:01:58;;;;;;;;;44.25;39.75;;;;;3.15;53.79;101634.59;5052226;28;45270;-62
2022/03/07 03:04:23;;;;;;;;;50.00;44.50;;;;;3.18;53.98;101632.81;5039405;28;45296;-64
2022/03/07 03:06:49;;;;;;;;;57.25;38.00;;;;;3.19;53.58;101638.94;5047803;28;45429;-64
2022/03/07 03:09:14;;;;;;;;;47.25;34.75;;;;;3.12;53.47;101627.59;5044956;28;45893;-64
2022/03/07 03:11:40;;;;;;;;;65.75;47.50;;;;;3.09;54.18;101637.28;5057623;28;45620;-64
2022/03/07 03:14:06;;;;;;;;;50.25;44.00;;;;;3.11;54.25;101635.50;5037558;28;45521;-65
2022/03/07 03:16:32;;;;;;;;;55.50;44.25;;;;;3.07;53.59;101625.91;5037885;28;45473;-64
2022/03/07 03:18:58;;;;;;;;;45.50;41.00;;;;;3.10;53.85;101628.50;5064315;28;45380;-61
2022/03/07 03:21:23;;;;;;;;;51.75;44.00;;;;;3.08;53.98;101625.00;5072852;28;44777;-63
2022/03/07 03:23:49;;;;;;;;;55.50;46.25;;;;;3.10;54.35;101639.88;5068023;28;45409;-62
2022/03/07 03:26:14;;;;;;;;;45.00;41.75;;;;;3.01;53.74;101623.34;5047428;28;45429;-63
2022/03/07 03:28:40;;;;;;;;;43.00;37.75;;;;;3.04;53.96;101629.44;5065773;28;45382;-67
2022/03/07 03:31:06;;;;;;;;;48.75;39.50;;;;;2.92;54.56;101614.63;5060551;28;45311;-64
2022/03/07 03:33:32;;;;;;;;;40.75;37.50;;;;;3.00;53.94;101624.22;5052461;28;46241;-65
2022/03/07 03:35:57;;;;;;;;;43.00;40.00;;;;;2.86;54.05;101595.41;5057259;28;45345;-65
2022/03/07 03:38:23;;;;;;;;;44.00;32.75;;;;;2.92;54.36;101612.00;5057466;28;45353;-64
2022/03/07 03:40:51;;;;;;;;;39.25;39.25;;;;;2.99;54.19;101627.72;5065803;28;45297;-62
2022/03/07 03:43:17;;;;;;;;;43.50;40.50;;;;;3.00;54.37;101629.47;5065205;28;45518;-63
2022/03/07 03:45:42;;;;;;;;;54.50;43.50;;;;;2.98;54.40;101634.72;5062246;28;45430;-62
2022/03/07 03:48:07;;;;;;;;;52.25;40.50;;;;;2.94;53.99;101636.50;5046036;28;45486;-63
2022/03/07 03:50:33;;;;;;;;;43.50;40.50;;;;;2.94;53.99;101644.41;5042002;28;45462;-61
2022/03/07 03:52:58;;;;;;;;;40.75;36.75;;;;;2.86;54.16;101632.19;5059550;28;45450;-64
2022/03/07 03:55:24;;;;;;;;;49.50;43.00;;;;;2.70;54.64;101610.44;5061261;28;45395;-63
2022/03/07 03:57:49;;;;;;;;;54.75;41.00;;;;;2.82;54.88;101628.72;5063870;28;45657;-65
2022/03/07 04:00:17;;;;;;;;;53.00;45.75;;;;;2.72;54.56;101621.78;5064193;28;45543;-62
2022/03/07 04:02:43;;;;;;;;;42.00;39.50;;;;;2.78;55.08;101629.66;5059674;28;45694;-63
2022/03/07 04:05:13;;;;;;;;;55.25;43.00;;;;;2.78;54.64;101637.53;5057316;28;45710;-64
2022/03/07 04:07:39;;;;;;;;;42.25;38.25;;;;;2.80;54.46;101638.38;5070848;28;44839;-66
2022/03/07 04:10:06;;;;;;;;;42.00;38.75;;;;;2.77;54.71;101648.91;5066548;28;45405;-66
2022/03/07 04:12:31;;;;;;;;;43.00;39.00;;;;;2.69;54.91;101632.31;5068097;28;45469;-65
2022/03/07 04:14:56;;;;;;;;;35.25;29.25;;;;;2.77;55.24;101642.78;5053023;28;45436;-64
2022/03/07 04:17:22;;;;;;;;;54.75;43.00;;;;;2.73;55.32;101643.69;5029122;28;45275;-65
2022/03/07 04:19:47;;;;;;;;;42.50;41.75;;;;;2.69;54.77;101632.31;5046232;28;45334;-63
2022/03/07 04:22:13;;;;;;;;;45.50;40.50;;;;;2.71;55.12;101641.06;5064474;28;46617;-66
2022/03/07 04:24:39;;;;;;;;;48.50;38.00;;;;;2.68;55.22;101638.47;5064700;28;45618;-65
2022/03/07 04:27:04;;;;;;;;;55.00;38.50;;;;;2.66;55.46;101642.88;5064742;28;45252;-64
2022/03/07 04:29:30;;;;;;;;;52.75;39.75;;;;;2.61;55.10;101642.03;5067608;28;45622;-62
2022/03/07 04:31:55;;;;;;;;;42.75;41.75;;;;;2.62;55.56;101643.78;5066958;28;45711;-65
2022/03/07 04:34:21;;;;;;;;;47.75;44.75;;;;;2.64;55.53;101647.25;5067791;28;45503;-63
2022/03/07 04:36:46;;;;;;;;;39.75;35.75;;;;;2.55;55.07;101629.78;5071034;28;45628;-63
2022/03/07 04:39:12;;;;;;;;;51.25;42.25;;;;;2.62;55.47;101649.03;5058961;28;45464;-63
2022/03/07 04:41:39;;;;;;;;;42.75;36.00;;;;;2.62;55.58;101633.28;5069979;28;46555;-62
2022/03/07 04:44:05;;;;;;;;;57.00;44.75;;;;;2.65;54.96;101641.13;5070261;28;45722;-63
2022/03/07 04:46:31;;;;;;;;;52.25;40.00;;;;;2.69;55.18;101658.59;5070518;28;44768;-64
2022/03/07 04:48:56;;;;;;;;;42.50;37.75;;;;;2.62;55.23;101654.28;5071068;28;45452;-64
2022/03/07 04:51:22;;;;;;;;;45.25;38.75;;;;;2.59;54.85;101646.41;5069379;28;45226;-64
2022/03/07 04:53:47;;;;;;;;;43.25;38.00;;;;;2.54;55.16;101648.19;5070004;28;45385;-63
2022/03/07 04:56:14;;;;;;;;;62.25;45.00;;;;;2.54;54.81;101645.56;5067703;28;45335;-63
2022/03/07 04:58:39;;;;;;;;;49.00;42.50;;;;;2.48;54.93;101648.25;5066252;28;45298;-67
2022/03/07 05:01:05;;;;;;;;;44.75;35.75;;;;;2.50;55.80;101654.34;5069200;28;45079;-64
2022/03/07 05:03:33;;;;;;;;;40.25;36.50;;;;;2.45;55.76;101645.63;5066975;28;45449;-62
2022/03/07 05:05:58;;;;;;;;;41.50;36.50;;;;;2.47;55.61;101649.09;5067027;28;44812;-68
2022/03/07 05:08:24;;;;;;;;;51.75;41.00;;;;;2.54;55.37;101661.31;5069293;28;45356;-63
2022/03/07 05:10:49;;;;;;;;;43.50;38.25;;;;;2.45;55.57;101645.63;5067510;28;45302;-63
2022/03/07 05:13:15;;;;;;;;;46.25;38.50;;;;;2.42;55.69;101656.13;5065118;28;45492;-66
2022/03/07 05:15:41;;;;;;;;;50.00;40.25;;;;;2.39;56.04;101656.16;5068370;28;44827;-63
2022/03/07 05:18:07;;;;;;;;;42.00;38.25;;;;;2.34;56.20;101646.56;5071424;28;45323;-65
2022/03/07 05:20:33;;;;;;;;;49.50;38.50;;;;;2.26;56.54;101640.47;5069312;28;46351;-66
2022/03/07 05:22:59;;;;;;;;;50.25;41.50;;;;;2.30;55.96;101646.56;5058236;28;45443;-63
2022/03/07 05:25:25;;;;;;;;;45.25;39.25;;;;;2.29;55.58;101637.81;5060268;28;45373;-63
2022/03/07 05:27:50;;;;;;;;;35.25;31.50;;;;;2.25;56.06;101632.63;5064714;28;45613;-65
2022/03/07 05:30:18;;;;;;;;;45.00;38.25;;;;;2.35;55.44;101661.44;5066691;28;45153;-63
2022/03/07 05:32:46;;;;;;;;;37.75;29.50;;;;;2.31;56.31;101657.06;5050181;28;45757;-67
2022/03/07 05:35:12;;;;;;;;;48.75;43.75;;;;;2.24;56.67;101663.25;5064280;28;45492;-66
2022/03/07 05:37:38;;;;;;;;;42.75;33.00;;;;;2.23;56.17;101653.63;5063721;28;45233;-63
2022/03/07 05:40:06;;;;;;;;;46.00;40.00;;;;;2.13;56.40;101654.53;5064390;28;45334;-63
2022/03/07 05:42:35;;;;;;;;;50.00;43.00;;;;;2.18;56.53;101663.25;5045306;28;45665;-63
2022/03/07 05:45:00;;;;;;;;;49.25;43.25;;;;;2.14;56.41;101648.41;5058698;28;45484;-67
2022/03/07 05:47:26;;;;;;;;;28.50;23.75;;;;;2.07;56.40;101644.06;5058365;28;45457;-64
2022/03/07 05:49:51;;;;;;;;;39.50;31.25;;;;;2.16;56.67;101658.91;5061756;28;45496;-62
2022/03/07 05:52:17;;;;;;;;;46.75;37.50;;;;;2.01;56.77;101646.72;5061289;28;45370;-63
2022/03/07 05:54:42;;;;;;;;;50.75;38.25;;;;;2.06;56.91;101664.16;5075723;28;45122;-66
2022/03/07 05:57:08;;;;;;;;;43.25;36.75;;;;;1.91;56.84;101645.00;5076476;28;44880;-63
2022/03/07 05:59:33;;;;;;;;;46.50;44.75;;;;;2.03;56.51;101658.94;5070836;28;46714;-66
2022/03/07 06:01:58;;;;;;;;;49.75;41.50;;;;;2.01;57.29;101660.72;5072861;28;45369;-65
2022/03/07 06:04:24;;;;;;;;;47.75;40.50;;;;;2.01;57.42;101667.69;5068940;28;44894;-64
2022/03/07 06:06:49;;;;;;;;;47.50;38.00;;;;;1.93;57.27;101656.34;5059115;28;45560;-65
2022/03/07 06:09:15;;;;;;;;;44.00;41.50;;;;;1.88;57.82;101655.50;5059788;28;45508;-67
2022/03/07 06:11:40;;;;;;;;;45.00;42.75;;;;;2.01;56.80;101670.31;5059831;28;45548;-62
2022/03/07 06:14:06;;;;;;;;;37.50;36.50;;;;;2.02;56.98;101672.94;5058414;28;45265;-64
2022/03/07 06:16:31;;;;;;;;;44.00;30.25;;;;;1.96;57.00;101661.63;5041207;28;45653;-63
2022/03/07 06:18:57;;;;;;;;;49.00;39.00;;;;;1.88;57.57;101652.88;5047283;28;45458;-64
2022/03/07 06:21:22;;;;;;;;;52.50;41.25;;;;;1.87;57.54;101659.88;5038232;28;45420;-66
2022/03/07 06:23:48;;;;;;;;;47.00;39.00;;;;;2.00;57.44;101676.47;5047646;28;45460;-65
2022/03/07 06:26:13;;;;;;;;;48.00;34.50;;;;;2.07;56.88;101679.03;5046840;28;45479;-64
2022/03/07 06:28:39;;;;;;;;;47.00;44.00;;;;;1.97;57.54;101668.59;5066356;28;46226;-64
2022/03/07 06:31:04;;;;;;;;;54.25;46.25;;;;;1.92;57.01;101657.22;5048275;28;45374;-67
2022/03/07 06:33:30;;;;;;;;;47.75;41.00;;;;;2.04;56.67;101675.56;5049493;28;45380;-66
2022/03/07 06:35:55;;;;;;;;;52.50;29.75;;;;;2.01;57.21;101672.94;5068175;28;45511;-62
2022/03/07 06:38:21;;;;;;;;;44.50;39.50;;;;;1.96;57.48;101670.34;5054261;28;47155;-62
2022/03/07 06:40:46;;;;;;;;;49.00;40.25;;;;;2.05;57.21;101679.94;5069042;28;44722;-68
2022/03/07 06:43:12;;;;;;;;;44.75;36.50;;;;;2.09;56.63;101663.31;5066711;28;45329;-65
2022/03/07 06:45:38;;;;;;;;;48.25;41.50;;;;;2.15;56.72;101680.78;5068808;28;45231;-65
2022/03/07 06:48:04;;;;;;;;;52.00;38.75;;;;;2.19;56.61;101688.63;5049427;28;47544;-66
2022/03/07 06:50:30;;;;;;;;;43.50;42.75;;;;;2.16;56.82;101686.00;5048517;28;45740;-65
2022/03/07 06:52:56;;;;;;;;;44.50;39.00;;;;;2.21;56.33;101692.09;5062399;28;45307;-63
2022/03/07 06:55:22;;;;;;;;;40.75;32.25;;;;;2.02;56.69;101661.56;5057479;28;45342;-63
2022/03/07 06:57:47;;;;;;;;;56.75;44.00;;;;;2.20;56.68;101689.47;5039582;28;46448;-61
2022/03/07 07:00:16;;;;;;;;;62.25;45.00;;;;;2.13;56.76;101670.28;5038665;28;45455;-65
2022/03/07 07:02:42;;;;;;;;;50.00;42.25;;;;;2.16;55.78;101675.50;5053347;28;45489;-61
2022/03/07 07:05:08;;;;;;;;;53.25;45.00;;;;;2.27;56.36;101684.22;5059446;28;45649;-64
2022/03/07 07:07:35;;;;;;;;;42.50;36.75;;;;;2.28;56.17;101680.72;5063545;28;45556;-69
2022/03/07 07:10:01;;;;;;;;;63.25;43.00;;;;;2.27;56.03;101657.97;5071765;28;45378;-63
2022/03/07 07:12:26;;;;;;;;;43.00;42.00;;;;;2.32;55.97;101671.94;5064506;28;44741;-64
2022/03/07 07:14:53;;;;;;;;;58.25;46.00;;;;;2.36;55.42;101678.94;5062920;28;45396;-64
2022/03/07 07:17:18;;;;;;;;;49.50;45.75;;;;;2.34;55.92;101678.06;5060029;28;45435;-64
2022/03/07 07:19:46;;;;;;;;;63.00;49.00;;;;;2.40;55.75;101685.03;5060113;28;45311;-66
2022/03/07 07:22:12;;;;;;;;;39.25;33.75;;;;;2.44;55.90;101681.50;5058031;28;45494;-65
2022/03/07 07:24:38;;;;;;;;;54.75;39.00;;;;;2.50;55.23;101676.22;5040795;28;45253;-65
2022/03/07 07:27:04;;;;;;;;;53.75;46.25;;;;;2.50;55.13;101672.72;5059163;28;47159;-61
2022/03/07 07:29:29;;;;;;;;;53.25;45.50;;;;;2.55;55.49;101684.06;5041968;28;45404;-64
2022/03/07 07:31:55;;;;;;;;;51.50;44.75;;;;;2.54;55.38;101671.81;5045507;28;45471;-69
2022/03/07 07:34:22;;;;;;;;;62.75;47.75;;;;;2.52;54.98;101674.47;5063714;28;45363;-68
2022/03/07 07:36:48;;;;;;;;;57.00;43.75;;;;;2.72;54.67;101692.72;5060061;28;45551;-68
2022/03/07 07:39:14;;;;;;;;;47.75;43.25;;;;;2.65;54.32;101675.25;5058206;28;45421;-66
2022/03/07 07:41:39;;;;;;;;;58.50;47.00;;;;;2.74;54.43;101680.47;5044738;28;45430;-67
2022/03/07 07:44:06;;;;;;;;;65.00;47.25;;;;;2.78;54.00;101691.81;5049493;28;45602;-68
2022/03/07 07:46:35;;;;;;;;;56.50;45.50;;;;;2.67;53.95;101669.13;5060997;28;47725;-69
2022/03/07 07:49:00;;;;;;;;;48.75;43.50;;;;;2.67;53.50;101674.38;5064185;28;45666;-71
2022/03/07 07:51:26;;;;;;;;;50.00;45.00;;;;;2.75;53.35;101676.97;5064772;28;45462;-66
2022/03/07 07:53:51;;;;;;;;;62.75;48.50;;;;;2.75;53.03;101676.09;5063154;28;45268;-66
2022/03/07 07:56:16;;;;;;;;;49.25;45.00;;;;;2.81;53.24;101682.16;5058338;28;46938;-67
2022/03/07 07:58:42;;;;;;;;;36.50;18.50;;;;;2.78;53.78;101676.94;5042628;28;45249;-68
2022/03/07 08:01:07;;;;;;;;;54.25;47.75;;;;;2.85;53.20;101673.34;5041622;28;45321;-68
2022/03/07 08:03:33;;;;;;;;;51.00;44.50;;;;;2.81;52.88;101671.66;5063317;28;45761;-67
2022/03/07 08:05:59;;;;;;;;;54.00;41.25;;;;;2.89;52.88;101675.09;5047637;28;46834;-68
2022/03/07 08:08:25;;;;;;;;;55.50;44.75;;;;;2.88;52.74;101660.22;5049712;28;45386;-66
2022/03/07 08:13:26;;;;;;;;;54.25;47.75;;;;;2.93;52.48;101660.19;5052539;28;46273;-64
2022/03/07 08:15:51;;;;;;;;;59.50;49.00;;;;;2.91;52.25;101648.81;5052597;28;45752;-63
2022/03/07 08:18:17;;;;;;;;;54.00;44.75;;;;;3.05;52.34;101669.72;5070856;28;46330;-65
2022/03/07 08:20:43;;;;;;;;;45.00;41.50;;;;;2.80;52.19;101632.25;5072014;28;44866;-65
2022/03/07 08:23:09;;;;;;;;;48.00;40.25;;;;;3.06;52.61;101669.72;5070220;28;44987;-63
2022/03/07 08:25:35;;;;;;;;;43.50;40.00;;;;;3.15;51.75;101672.28;5069152;28;44925;-67
2022/03/07 08:28:01;;;;;;;;;56.00;48.25;;;;;3.12;51.86;101664.38;5069388;28;44658;-66
2022/03/07 08:30:28;;;;;;;;;50.25;43.00;;;;;3.24;51.36;101660.78;5076627;28;44787;-66
2022/03/07 08:32:54;;;;;;;;;59.25;47.25;;;;;3.15;51.42;101656.50;5076266;28;45544;-64
2022/03/07 08:35:21;;;;;;;;;46.75;40.50;;;;;3.25;50.66;101662.53;5079777;28;45149;-65
2022/03/07 08:37:48;;;;;;;;;56.50;49.00;;;;;3.22;51.35;101647.66;5062118;28;45462;-65
2022/03/07 08:40:16;;;;;;;;;67.25;45.00;;;;;3.34;50.77;101651.94;5060267;28;44663;-65
2022/03/07 08:42:42;;;;;;;;;44.50;29.00;;;;;3.31;50.55;101654.59;5069819;28;45396;-62
2022/03/07 08:45:09;;;;;;;;;18.75;11.50;;;;;3.03;49.99;101603.16;5076036;28;45541;-67
2022/03/07 08:47:37;;;;;;;;;60.25;47.00;;;;;3.36;50.25;101641.41;5074854;28;45699;-67
2022/03/07 08:50:04;;;;;;;;;54.50;46.75;;;;;3.24;49.86;101623.97;5069801;28;45706;-66
2022/03/07 08:52:29;;;;;;;;;60.00;48.25;;;;;3.38;49.45;101632.59;5072879;28;45343;-65
2022/03/07 08:54:55;;;;;;;;;49.00;43.75;;;;;3.53;50.25;101647.38;5074680;28;46234;-66
2022/03/07 08:57:20;;;;;;;;;44.25;40.75;;;;;3.63;49.41;101654.28;5073534;28;44761;-65
2022/03/07 08:59:46;;;;;;;;;51.50;44.75;;;;;3.77;49.07;101651.50;5073961;28;45361;-61
2022/03/07 09:02:12;;;;;;;;;59.00;47.00;;;;;3.83;48.51;101640.91;5073265;28;45572;-64
2022/03/07 09:04:40;;;;;;;;;55.00;48.75;;;;;4.05;48.24;101647.66;5071180;28;45631;-65
2022/03/07 09:07:06;;;;;;;;;52.75;45.00;;;;;4.20;48.29;101632.56;5065905;28;45843;-64
2022/03/07 09:09:34;;;;;;;;;45.75;36.75;;;;;4.30;47.69;101636.81;5074230;28;45252;-63
2022/03/07 09:12:01;;;;;;;;;30.50;28.25;;;;;4.50;46.92;101640.03;5068851;28;45576;-65
2022/03/07 09:14:27;;;;;;;;;38.00;36.00;;;;;4.50;46.39;101605.78;5068596;28;45662;-63
2022/03/07 09:16:52;;;;;;;;;49.25;41.25;;;;;4.82;46.25;101633.41;5075644;28;45417;-63
2022/03/07 09:19:18;;;;;;;;;54.50;45.25;;;;;4.97;45.79;101641.09;5082965;28;44692;-63
2022/03/07 09:21:43;;;;;;;;;44.75;38.50;;;;;5.03;46.02;101630.44;5066085;28;45556;-64
2022/03/07 09:24:09;;;;;;;;;50.00;38.50;;;;;5.19;44.95;101634.53;5063875;28;46862;-64
2022/03/07 09:26:35;;;;;;;;;42.50;37.25;;;;;5.30;45.20;101637.88;5071705;28;44907;-63
2022/03/07 09:29:00;;;;;;;;;46.25;40.25;;;;;5.42;44.63;101620.09;5079040;28;45309;-64
2022/03/07 09:31:27;;;;;;;;;64.00;49.25;;;;;5.63;45.13;101639.03;5076211;28;45468;-62
2022/03/07 09:33:52;;;;;;;;;52.00;40.50;;;;;5.72;44.47;101637.09;5065208;28;45584;-63
2022/03/07 09:36:18;;;;;;;;;59.75;45.00;;;;;5.78;43.48;101643.13;5074789;28;44848;-66
2022/03/07 09:38:43;;;;;;;;;42.50;36.50;;;;;5.83;42.87;101630.72;5066867;28;45465;-63
2022/03/07 09:41:09;;;;;;;;;47.75;42.00;;;;;6.01;43.41;101639.22;5072985;28;45667;-64
2022/03/07 09:43:35;;;;;;;;;50.75;39.00;;;;;6.06;43.60;101638.19;5063409;28;46040;-65
2022/03/07 09:46:00;;;;;;;;;48.50;39.50;;;;;6.17;43.90;101640.63;5084377;28;45507;-65
2022/03/07 09:48:27;;;;;;;;;40.25;36.75;;;;;6.24;41.87;101629.00;5078510;28;45242;-66
2022/03/07 09:50:53;;;;;;;;;45.75;44.00;;;;;6.20;42.09;101624.69;5046846;28;45631;-65
2022/03/07 09:53:19;;;;;;;;;48.00;40.75;;;;;6.27;41.86;101625.47;5066377;28;46248;-64
2022/03/07 09:55:46;;;;;;;;;51.75;37.50;;;;;6.28;42.03;101622.78;5069452;28;44749;-70
2022/03/07 09:58:13;;;;;;;;;55.25;43.00;;;;;6.34;41.46;101621.75;5072369;28;45242;-64
2022/03/07 10:00:46;;;;;;;;;48.25;40.75;;;;;6.35;42.11;101612.94;5064302;28;45481;-68
2022/03/07 10:03:18;;;;;;;;;46.25;40.00;;;;;6.45;41.79;101610.06;5045790;28;46824;-69
2022/03/07 10:05:46;;;;;;;;;44.50;39.50;;;;;6.20;41.84;101593.00;5069798;28;44899;-68
2022/03/07 10:08:32;;;;;;;;;47.75;35.75;;;;;6.30;40.95;101620.09;5072977;28;45479;-66
2022/03/07 10:10:57;;;;;;;;;52.25;40.25;;;;;6.22;40.44;101604.41;5048693;28;45396;-69
2022/03/07 10:13:24;;;;;;;;;42.50;41.00;;;;;6.28;41.68;101612.22;5064683;28;45515;-66
2022/03/07 10:16:04;;;;;;;;;45.75;37.75;;;;;6.30;40.71;101615.69;5061347;28;45332;-69
2022/03/07 10:18:30;;;;;;;;;37.50;35.75;;;;;6.24;40.82;101613.16;5060724;28;45733;-66
2022/03/07 10:21:02;;;;;;;;;41.75;39.25;;;;;6.18;40.39;101598.31;5061535;28;45402;-68
2022/03/07 10:23:34;;;;;;;;;47.50;38.25;;;;;6.19;40.60;101591.28;5060645;28;45298;-70
2022/03/07 10:26:14;;;;;;;;;49.25;38.50;;;;;6.28;40.45;101606.94;5063236;28;45384;-70
2022/03/07 10:28:41;;;;;;;;;42.25;34.00;;;;;6.30;40.21;101598.97;5065932;28;45405;-69
2022/03/07 10:31:19;;;;;;;;;44.25;42.75;;;;;6.16;40.55;101580.78;5070239;28;45075;-68
2022/03/07 10:34:01;;;;;;;;;44.00;34.00;;;;;6.25;39.91;101596.44;5071586;28;45233;-68
2022/03/07 10:36:42;;;;;;;;;47.50;41.00;;;;;6.35;40.51;101592.66;5070429;28;45718;-67
2022/03/07 10:39:12;;;;;;;;;43.75;37.75;;;;;6.39;39.44;101596.13;5065095;28;45283;-67
2022/03/07 10:41:40;;;;;;;;;38.00;37.75;;;;;6.34;39.56;101576.84;5044583;28;45602;-70
2022/03/07 10:44:08;;;;;;;;;47.00;34.25;;;;;6.35;39.86;101575.94;5079168;28;46195;-67
2022/03/07 10:46:34;;;;;;;;;51.00;41.25;;;;;6.43;39.22;101588.09;5067847;28;45476;-70
2022/03/07 10:49:06;;;;;;;;;47.25;41.25;;;;;6.47;39.71;101576.53;5047257;28;45317;-67
2022/03/07 10:51:35;;;;;;;;;42.00;34.50;;;;;6.58;39.22;101583.34;5061997;28;45191;-68
2022/03/07 10:54:11;;;;;;;;;36.50;29.00;;;;;6.56;39.20;101564.00;5063065;28;45452;-66
2022/03/07 10:56:54;;;;;;;;;54.50;42.00;;;;;6.39;38.94;101530.06;5046270;28;44894;-72
2022/03/07 10:59:46;;;;;;;;;43.50;36.00;;;;;6.83;38.35;101571.25;5072507;28;45462;-67
2022/03/07 11:02:42;;;;;;;;;42.00;34.75;;;;;6.84;38.49;101575.66;5059243;28;45424;-68
2022/03/07 11:05:09;;;;;;;;;37.50;29.25;;;;;6.96;38.26;101566.53;5069776;28;45312;-71
2022/03/07 11:07:41;;;;;;;;;41.50;36.25;;;;;7.00;37.86;101566.41;5068311;28;45520;-73
2022/03/07 11:10:11;;;;;;;;;39.50;33.00;;;;;6.87;38.37;101541.19;5068394;28;45260;-69
2022/03/07 11:12:43;;;;;;;;;39.25;38.25;;;;;7.09;37.95;101566.19;5071822;28;45290;-67
2022/03/07 11:15:18;;;;;;;;;44.75;41.75;;;;;7.18;37.30;101553.63;5042532;28;47308;-68
2022/03/07 11:17:47;;;;;;;;;35.75;33.25;;;;;7.28;37.54;101552.44;5066891;28;45382;-69